sensor_id;sensor_type;location;lat;lon;timestamp;P1;durP1;ratioP1;P2;durP2;ratioP2
11703;SDS011;5908;51.354;7.458;2023-07-20T06:10:17;25.85;;;21.27;;
11703;SDS011;5908;51.354;7.458;2023-07-20T06:12:44;27.15;;;24.35;;
11703;SDS011;5908;51.354;7.458;2023-07-20T06:15:23;26.23;;;23.55;;
11703;SDS011;5908;51.354;7.458;2023-07-20T06:17:51;26.52;;;23.83;;
11703;SDS011;5908;51.354;7.458;2023-07-20T06:20:19;26.80;;;23.90;;
11703;SDS011;5908;51.354;7.458;2023-07-20T06:22:46;25.92;;;23.45;;
11703;SDS011;5908;51.354;7.458;2023-07-20T06:25:14;25.07;;;22.57;;
11703;SDS011;5908;51.354;7.458;2023-07-20T06:27:41;25.52;;;22.92;;
11703;SDS011;5908;51.354;7.458;2023-07-20T06:30:08;25.73;;;23.23;;
11703;SDS011;5908;51.354;7.458;2023-07-20T06:32:38;25.55;;;22.98;;
11703;SDS011;5908;51.354;7.458;2023-07-20T06:35:05;25.80;;;23.30;;
11703;SDS011;5908;51.354;7.458;2023-07-20T06:37:33;24.00;;;21.70;;
11703;SDS011;5908;51.354;7.458;2023-07-20T06:40:00;24.93;;;22.43;;
11703;SDS011;5908;51.354;7.458;2023-07-20T06:42:29;21.75;;;19.65;;
11703;SDS011;5908;51.354;7.458;2023-07-20T06:44:57;20.10;;;18.20;;
11703;SDS011;5908;51.354;7.458;2023-07-20T06:47:24;21.40;;;19.17;;
11703;SDS011;5908;51.354;7.458;2023-07-20T06:49:50;23.65;;;21.25;;
11703;SDS011;5908;51.354;7.458;2023-07-20T06:52:18;42.75;;;38.10;;
11703;SDS011;5908;51.354;7.458;2023-07-20T06:54:44;31.45;;;28.17;;
11703;SDS011;5908;51.354;7.458;2023-07-20T06:57:11;26.25;;;23.70;;
11703;SDS011;5908;51.354;7.458;2023-07-20T06:59:39;22.33;;;20.17;;
11703;SDS011;5908;51.354;7.458;2023-07-20T07:02:06;44.03;;;39.35;;
11703;SDS011;5908;51.354;7.458;2023-07-20T07:04:33;16.50;;;14.80;;
11703;SDS011;5908;51.354;7.458;2023-07-20T07:07:00;28.97;;;25.80;;
11703;SDS011;5908;51.354;7.458;2023-07-20T07:09:28;16.63;;;14.93;;
11703;SDS011;5908;51.354;7.458;2023-07-20T07:11:54;17.05;;;15.35;;
11703;SDS011;5908;51.354;7.458;2023-07-20T07:14:22;14.25;;;12.88;;
11703;SDS011;5908;51.354;7.458;2023-07-20T07:16:50;14.55;;;13.25;;
11703;SDS011;5908;51.354;7.458;2023-07-20T07:19:17;13.15;;;11.75;;
11703;SDS011;5908;51.354;7.458;2023-07-20T07:21:44;12.93;;;11.48;;
11703;SDS011;5908;51.354;7.458;2023-07-20T07:24:11;14.05;;;12.75;;
11703;SDS011;5908;51.354;7.458;2023-07-20T07:29:04;11.18;;;10.02;;
11703;SDS011;5908;51.354;7.458;2023-07-20T07:31:33;10.98;;;9.88;;
11703;SDS011;5908;51.354;7.458;2023-07-20T07:34:02;10.40;;;9.40;;
11703;SDS011;5908;51.354;7.458;2023-07-20T07:36:30;9.57;;;8.68;;
11703;SDS011;5908;51.354;7.458;2023-07-20T07:38:57;8.68;;;7.88;;
11703;SDS011;5908;51.354;7.458;2023-07-20T07:41:24;6.97;;;6.37;;
11703;SDS011;5908;51.354;7.458;2023-07-20T07:43:51;6.32;;;5.72;;
11703;SDS011;5908;51.354;7.458;2023-07-20T07:46:17;6.18;;;5.68;;
11703;SDS011;5908;51.354;7.458;2023-07-20T07:48:44;6.90;;;6.30;;
11703;SDS011;5908;51.354;7.458;2023-07-20T07:51:13;5.65;;;5.05;;
11703;SDS011;5908;51.354;7.458;2023-07-20T07:53:40;5.13;;;4.65;;
11703;SDS011;5908;51.354;7.458;2023-07-20T07:56:08;4.75;;;4.35;;
11703;SDS011;5908;51.354;7.458;2023-07-20T07:58:35;5.38;;;4.85;;
11703;SDS011;5908;51.354;7.458;2023-07-20T08:01:02;5.07;;;4.50;;
11703;SDS011;5908;51.354;7.458;2023-07-20T08:03:29;4.72;;;4.32;;
11703;SDS011;5908;51.354;7.458;2023-07-20T08:05:56;5.72;;;5.22;;
11703;SDS011;5908;51.354;7.458;2023-07-20T08:08:25;5.88;;;5.28;;
11703;SDS011;5908;51.354;7.458;2023-07-20T08:10:52;5.30;;;4.80;;
11703;SDS011;5908;51.354;7.458;2023-07-20T08:13:20;5.47;;;4.97;;
11703;SDS011;5908;51.354;7.458;2023-07-20T08:15:48;5.80;;;5.20;;
11703;SDS011;5908;51.354;7.458;2023-07-20T08:18:16;5.78;;;5.28;;
11703;SDS011;5908;51.354;7.458;2023-07-20T08:20:43;5.88;;;5.30;;
11703;SDS011;5908;51.354;7.458;2023-07-20T08:23:10;4.97;;;4.57;;
11703;SDS011;5908;51.354;7.458;2023-07-20T08:25:39;4.10;;;3.70;;
11703;SDS011;5908;51.354;7.458;2023-07-20T08:28:08;3.00;;;2.80;;
11703;SDS011;5908;51.354;7.458;2023-07-20T08:30:39;3.25;;;2.97;;
11703;SDS011;5908;51.354;7.458;2023-07-20T08:33:07;3.25;;;2.40;;
11703;SDS011;5908;51.354;7.458;2023-07-20T08:35:34;2.13;;;2.00;;
11703;SDS011;5908;51.354;7.458;2023-07-20T08:38:00;2.58;;;2.10;;
11703;SDS011;5908;51.354;7.458;2023-07-20T08:40:29;2.67;;;1.90;;
11703;SDS011;5908;51.354;7.458;2023-07-20T08:42:57;2.38;;;1.90;;
11703;SDS011;5908;51.354;7.458;2023-07-20T08:45:25;2.13;;;1.92;;
11703;SDS011;5908;51.354;7.458;2023-07-20T08:47:53;3.28;;;2.00;;
11703;SDS011;5908;51.354;7.458;2023-07-20T08:50:21;2.30;;;1.90;;
11703;SDS011;5908;51.354;7.458;2023-07-20T08:52:50;2.05;;;1.70;;
11703;SDS011;5908;51.354;7.458;2023-07-20T08:55:19;2.60;;;2.25;;
11703;SDS011;5908;51.354;7.458;2023-07-20T08:57:47;2.70;;;2.50;;
11703;SDS011;5908;51.354;7.458;2023-07-20T09:00:17;2.20;;;2.10;;
11703;SDS011;5908;51.354;7.458;2023-07-20T09:02:46;22.37;;;19.73;;
11703;SDS011;5908;51.354;7.458;2023-07-20T09:05:15;2.70;;;1.80;;
11703;SDS011;5908;51.354;7.458;2023-07-20T09:07:42;2.95;;;2.60;;
11703;SDS011;5908;51.354;7.458;2023-07-20T09:10:10;2.22;;;1.90;;
11703;SDS011;5908;51.354;7.458;2023-07-20T09:12:38;5.07;;;4.57;;
11703;SDS011;5908;51.354;7.458;2023-07-20T09:15:06;2.40;;;2.10;;
11703;SDS011;5908;51.354;7.458;2023-07-20T09:17:35;5.28;;;4.75;;
11703;SDS011;5908;51.354;7.458;2023-07-20T09:20:03;2.10;;;1.70;;
11703;SDS011;5908;51.354;7.458;2023-07-20T09:22:33;3.00;;;2.45;;
11703;SDS011;5908;51.354;7.458;2023-07-20T09:25:00;2.10;;;1.80;;
11703;SDS011;5908;51.354;7.458;2023-07-20T09:27:34;11.88;;;10.15;;
11703;SDS011;5908;51.354;7.458;2023-07-20T09:30:02;2.00;;;1.77;;
11703;SDS011;5908;51.354;7.458;2023-07-20T09:32:30;5.97;;;5.03;;
11703;SDS011;5908;51.354;7.458;2023-07-20T09:34:58;3.10;;;2.55;;
11703;SDS011;5908;51.354;7.458;2023-07-20T09:37:25;3.83;;;2.90;;
11703;SDS011;5908;51.354;7.458;2023-07-20T09:39:52;5.20;;;4.70;;
11703;SDS011;5908;51.354;7.458;2023-07-20T09:42:19;4.07;;;3.67;;
11703;SDS011;5908;51.354;7.458;2023-07-20T09:44:50;3.60;;;3.30;;
11703;SDS011;5908;51.354;7.458;2023-07-20T09:47:21;5.13;;;4.63;;
11703;SDS011;5908;51.354;7.458;2023-07-20T09:49:48;3.70;;;3.40;;
11703;SDS011;5908;51.354;7.458;2023-07-20T09:52:16;3.72;;;3.42;;
11703;SDS011;5908;51.354;7.458;2023-07-20T09:54:44;6.63;;;3.97;;
11703;SDS011;5908;51.354;7.458;2023-07-20T09:57:12;4.32;;;3.50;;
11703;SDS011;5908;51.354;7.458;2023-07-20T09:59:39;3.63;;;3.33;;
11703;SDS011;5908;51.354;7.458;2023-07-20T10:02:08;3.90;;;3.53;;
11703;SDS011;5908;51.354;7.458;2023-07-20T10:04:42;3.28;;;2.70;;
11703;SDS011;5908;51.354;7.458;2023-07-20T10:07:10;2.72;;;2.30;;
11703;SDS011;5908;51.354;7.458;2023-07-20T10:09:39;4.18;;;2.47;;
11703;SDS011;5908;51.354;7.458;2023-07-20T10:12:08;2.70;;;2.10;;
11703;SDS011;5908;51.354;7.458;2023-07-20T10:14:36;2.88;;;2.30;;
11703;SDS011;5908;51.354;7.458;2023-07-20T10:24:39;2.40;;;2.20;;
11703;SDS011;5908;51.354;7.458;2023-07-20T10:27:07;2.70;;;2.50;;
11703;SDS011;5908;51.354;7.458;2023-07-20T10:46:46;2.42;;;2.20;;
11703;SDS011;5908;51.354;7.458;2023-07-20T10:49:13;2.90;;;2.50;;
11703;SDS011;5908;51.354;7.458;2023-07-20T12:32:42;4.32;;;3.95;;
11703;SDS011;5908;51.354;7.458;2023-07-20T12:35:08;11.02;;;9.98;;
11703;SDS011;5908;51.354;7.458;2023-07-20T12:37:36;10.10;;;9.18;;
11703;SDS011;5908;51.354;7.458;2023-07-20T12:40:05;37.88;;;34.22;;
11703;SDS011;5908;51.354;7.458;2023-07-20T12:42:35;5.95;;;5.28;;
11703;SDS011;5908;51.354;7.458;2023-07-20T12:45:02;2.00;;;1.90;;
11703;SDS011;5908;51.354;7.458;2023-07-20T12:47:30;2.00;;;1.90;;
11703;SDS011;5908;51.354;7.458;2023-07-20T12:49:57;1.90;;;1.80;;
11703;SDS011;5908;51.354;7.458;2023-07-20T12:52:24;1.70;;;1.60;;
11703;SDS011;5908;51.354;7.458;2023-07-20T12:54:51;1.70;;;1.60;;
11703;SDS011;5908;51.354;7.458;2023-07-20T12:57:19;1.80;;;1.70;;
11703;SDS011;5908;51.354;7.458;2023-07-20T12:59:45;2.08;;;1.88;;
11703;SDS011;5908;51.354;7.458;2023-07-20T13:02:12;2.00;;;1.80;;
11703;SDS011;5908;51.354;7.458;2023-07-20T13:04:39;8.75;;;7.80;;
11703;SDS011;5908;51.354;7.458;2023-07-20T13:07:08;5.45;;;4.70;;
11703;SDS011;5908;51.354;7.458;2023-07-20T13:09:36;2.13;;;1.88;;
11703;SDS011;5908;51.354;7.458;2023-07-20T13:12:02;3.63;;;3.33;;
11703;SDS011;5908;51.354;7.458;2023-07-20T13:14:31;2.00;;;1.88;;
11703;SDS011;5908;51.354;7.458;2023-07-20T13:16:58;1.67;;;1.58;;
11703;SDS011;5908;51.354;7.458;2023-07-20T13:19:24;1.98;;;1.63;;
11703;SDS011;5908;51.354;7.458;2023-07-20T13:21:52;1.88;;;1.60;;
11703;SDS011;5908;51.354;7.458;2023-07-20T13:24:19;1.40;;;1.30;;
11703;SDS011;5908;51.354;7.458;2023-07-20T13:26:46;1.55;;;1.45;;
11703;SDS011;5908;51.354;7.458;2023-07-20T14:01:04;2.28;;;2.08;;
11703;SDS011;5908;51.354;7.458;2023-07-20T14:03:31;1.83;;;1.65;;
11703;SDS011;5908;51.354;7.458;2023-07-20T14:05:59;2.40;;;1.80;;
11703;SDS011;5908;51.354;7.458;2023-07-20T14:08:26;2.20;;;1.77;;
11703;SDS011;5908;51.354;7.458;2023-07-20T14:10:55;1.70;;;1.60;;
11703;SDS011;5908;51.354;7.458;2023-07-20T14:13:21;2.00;;;1.70;;
11703;SDS011;5908;51.354;7.458;2023-07-20T14:15:48;1.83;;;1.73;;
11703;SDS011;5908;51.354;7.458;2023-07-20T14:18:15;2.33;;;1.83;;
11703;SDS011;5908;51.354;7.458;2023-07-20T14:20:42;2.30;;;1.67;;
11703;SDS011;5908;51.354;7.458;2023-07-20T14:23:11;3.10;;;1.70;;
11703;SDS011;5908;51.354;7.458;2023-07-20T14:25:37;2.25;;;1.67;;
11703;SDS011;5908;51.354;7.458;2023-07-20T14:28:05;1.70;;;1.60;;
11703;SDS011;5908;51.354;7.458;2023-07-20T14:30:32;1.92;;;1.80;;
11703;SDS011;5908;51.354;7.458;2023-07-20T14:32:58;1.50;;;1.40;;
11703;SDS011;5908;51.354;7.458;2023-07-20T14:35:25;1.77;;;1.67;;
11703;SDS011;5908;51.354;7.458;2023-07-20T14:47:40;2.22;;;1.88;;
11703;SDS011;5908;51.354;7.458;2023-07-20T14:50:08;2.00;;;1.90;;
11703;SDS011;5908;51.354;7.458;2023-07-20T14:52:35;1.77;;;1.67;;
11703;SDS011;5908;51.354;7.458;2023-07-20T14:55:02;2.45;;;1.77;;
11703;SDS011;5908;51.354;7.458;2023-07-20T14:57:31;2.15;;;2.03;;
11703;SDS011;5908;51.354;7.458;2023-07-20T14:59:58;2.05;;;1.90;;
11703;SDS011;5908;51.354;7.458;2023-07-20T15:02:25;2.10;;;2.00;;
11703;SDS011;5908;51.354;7.458;2023-07-20T15:19:36;2.35;;;1.92;;
11703;SDS011;5908;51.354;7.458;2023-07-20T15:24:30;1.90;;;1.80;;
11703;SDS011;5908;51.354;7.458;2023-07-20T15:26:58;2.10;;;1.90;;
11703;SDS011;5908;51.354;7.458;2023-07-20T15:29:26;2.00;;;1.90;;
11703;SDS011;5908;51.354;7.458;2023-07-20T15:31:54;2.28;;;2.08;;
11703;SDS011;5908;51.354;7.458;2023-07-20T15:34:21;2.00;;;1.90;;
11703;SDS011;5908;51.354;7.458;2023-07-20T15:36:47;2.28;;;1.90;;
11703;SDS011;5908;51.354;7.458;2023-07-20T15:39:14;2.35;;;1.92;;
11703;SDS011;5908;51.354;7.458;2023-07-20T15:41:41;1.45;;;1.35;;
11703;SDS011;5908;51.354;7.458;2023-07-20T15:44:08;1.60;;;1.50;;
11703;SDS011;5908;51.354;7.458;2023-07-20T15:46:45;2.08;;;1.40;;
11703;SDS011;5908;51.354;7.458;2023-07-20T15:49:15;1.85;;;1.65;;
11703;SDS011;5908;51.354;7.458;2023-07-20T15:51:42;1.50;;;1.40;;
11703;SDS011;5908;51.354;7.458;2023-07-20T15:54:11;2.40;;;2.05;;
11703;SDS011;5908;51.354;7.458;2023-07-20T15:56:39;1.75;;;1.30;;
11703;SDS011;5908;51.354;7.458;2023-07-20T15:59:08;2.42;;;1.40;;
11703;SDS011;5908;51.354;7.458;2023-07-20T16:01:36;1.60;;;1.50;;
11703;SDS011;5908;51.354;7.458;2023-07-20T16:04:03;1.65;;;1.52;;
11703;SDS011;5908;51.354;7.458;2023-07-20T16:06:32;1.70;;;1.60;;
11703;SDS011;5908;51.354;7.458;2023-07-20T16:09:00;2.28;;;1.50;;
11703;SDS011;5908;51.354;7.458;2023-07-20T16:11:27;2.25;;;1.60;;
11703;SDS011;5908;51.354;7.458;2023-07-20T16:13:54;1.52;;;1.42;;
11703;SDS011;5908;51.354;7.458;2023-07-20T16:16:21;1.48;;;1.38;;
11703;SDS011;5908;51.354;7.458;2023-07-20T16:18:48;1.50;;;1.40;;
11703;SDS011;5908;51.354;7.458;2023-07-20T16:21:15;3.80;;;2.42;;
11703;SDS011;5908;51.354;7.458;2023-07-20T16:33:35;2.22;;;1.60;;
11703;SDS011;5908;51.354;7.458;2023-07-20T16:36:01;2.22;;;2.03;;
11703;SDS011;5908;51.354;7.458;2023-07-20T16:38:29;1.88;;;1.55;;
11703;SDS011;5908;51.354;7.458;2023-07-20T16:40:57;1.67;;;1.30;;
11703;SDS011;5908;51.354;7.458;2023-07-20T16:43:23;4.10;;;1.50;;
11703;SDS011;5908;51.354;7.458;2023-07-20T16:45:50;1.63;;;1.30;;
11703;SDS011;5908;51.354;7.458;2023-07-20T16:48:17;1.38;;;1.27;;
11703;SDS011;5908;51.354;7.458;2023-07-20T16:50:45;1.55;;;1.40;;
11703;SDS011;5908;51.354;7.458;2023-07-20T16:53:12;2.22;;;1.40;;
11703;SDS011;5908;51.354;7.458;2023-07-20T17:07:55;1.98;;;1.52;;
11703;SDS011;5908;51.354;7.458;2023-07-20T17:10:22;3.30;;;1.90;;
11703;SDS011;5908;51.354;7.458;2023-07-20T17:12:49;1.85;;;1.30;;
11703;SDS011;5908;51.354;7.458;2023-07-20T17:25:05;8.60;;;6.85;;
11703;SDS011;5908;51.354;7.458;2023-07-20T17:27:33;12.30;;;8.93;;
11703;SDS011;5908;51.354;7.458;2023-07-20T17:30:00;6.40;;;4.55;;
11703;SDS011;5908;51.354;7.458;2023-07-20T17:32:28;10.07;;;9.07;;
11703;SDS011;5908;51.354;7.458;2023-07-20T17:34:55;2.20;;;1.97;;
11703;SDS011;5908;51.354;7.458;2023-07-20T19:49:43;12.85;;;10.85;;
11703;SDS011;5908;51.354;7.458;2023-07-20T19:52:10;14.10;;;10.85;;
11703;SDS011;5908;51.354;7.458;2023-07-20T19:54:38;23.25;;;17.45;;
11703;SDS011;5908;51.354;7.458;2023-07-20T19:57:05;6.95;;;6.20;;
11703;SDS011;5908;51.354;7.458;2023-07-20T19:59:31;14.95;;;10.95;;
11703;SDS011;5908;51.354;7.458;2023-07-20T20:01:59;15.13;;;12.35;;
11703;SDS011;5908;51.354;7.458;2023-07-20T20:04:26;3.70;;;3.20;;
11703;SDS011;5908;51.354;7.458;2023-07-20T20:06:55;4.97;;;4.03;;
11703;SDS011;5908;51.354;7.458;2023-07-20T20:09:22;6.32;;;5.25;;
11703;SDS011;5908;51.354;7.458;2023-07-20T20:11:49;4.13;;;3.30;;
11703;SDS011;5908;51.354;7.458;2023-07-20T20:14:16;4.18;;;2.88;;
11703;SDS011;5908;51.354;7.458;2023-07-20T20:16:43;3.85;;;2.63;;
11703;SDS011;5908;51.354;7.458;2023-07-20T20:19:10;3.80;;;2.80;;
11703;SDS011;5908;51.354;7.458;2023-07-20T20:21:38;7.35;;;5.25;;
11703;SDS011;5908;51.354;7.458;2023-07-20T20:24:06;3.42;;;2.53;;
11703;SDS011;5908;51.354;7.458;2023-07-20T20:26:33;3.80;;;2.40;;
11703;SDS011;5908;51.354;7.458;2023-07-20T20:29:02;9.88;;;7.60;;
11703;SDS011;5908;51.354;7.458;2023-07-20T20:31:29;8.10;;;5.65;;
11703;SDS011;5908;51.354;7.458;2023-07-20T20:33:56;4.07;;;3.50;;
11703;SDS011;5908;51.354;7.458;2023-07-20T20:36:24;27.00;;;22.25;;
11703;SDS011;5908;51.354;7.458;2023-07-20T20:38:52;22.10;;;18.00;;
11703;SDS011;5908;51.354;7.458;2023-07-20T20:41:20;5.27;;;4.77;;
11703;SDS011;5908;51.354;7.458;2023-07-20T20:43:47;3.58;;;2.70;;
11703;SDS011;5908;51.354;7.458;2023-07-20T20:46:14;3.10;;;2.80;;
11703;SDS011;5908;51.354;7.458;2023-07-20T20:48:45;3.40;;;2.33;;
11703;SDS011;5908;51.354;7.458;2023-07-20T20:51:12;4.40;;;3.03;;
11703;SDS011;5908;51.354;7.458;2023-07-20T20:53:39;4.88;;;3.70;;
11703;SDS011;5908;51.354;7.458;2023-07-20T20:56:06;8.90;;;6.43;;
11703;SDS011;5908;51.354;7.458;2023-07-20T20:58:34;4.50;;;3.67;;
11703;SDS011;5908;51.354;7.458;2023-07-20T21:01:01;9.55;;;7.95;;
11703;SDS011;5908;51.354;7.458;2023-07-20T21:03:28;11.43;;;10.32;;
11703;SDS011;5908;51.354;7.458;2023-07-20T21:05:55;7.85;;;6.43;;
11703;SDS011;5908;51.354;7.458;2023-07-20T21:08:23;4.75;;;4.05;;
11703;SDS011;5908;51.354;7.458;2023-07-20T21:10:50;5.43;;;4.78;;
11703;SDS011;5908;51.354;7.458;2023-07-20T21:13:18;11.77;;;10.55;;
11703;SDS011;5908;51.354;7.458;2023-07-20T21:15:46;10.10;;;8.98;;
11703;SDS011;5908;51.354;7.458;2023-07-20T21:18:16;45.40;;;36.05;;
11703;SDS011;5908;51.354;7.458;2023-07-20T21:20:43;40.95;;;34.67;;
11703;SDS011;5908;51.354;7.458;2023-07-20T21:23:10;27.10;;;23.02;;
11703;SDS011;5908;51.354;7.458;2023-07-20T21:25:37;12.80;;;10.00;;
11703;SDS011;5908;51.354;7.458;2023-07-20T21:28:04;13.35;;;11.77;;
11703;SDS011;5908;51.354;7.458;2023-07-20T21:30:31;3.70;;;3.30;;
11703;SDS011;5908;51.354;7.458;2023-07-20T21:32:59;9.20;;;7.30;;
11703;SDS011;5908;51.354;7.458;2023-07-20T21:35:26;6.47;;;5.65;;
11703;SDS011;5908;51.354;7.458;2023-07-20T21:37:52;6.20;;;5.03;;
11703;SDS011;5908;51.354;7.458;2023-07-20T21:40:19;4.60;;;3.83;;
11703;SDS011;5908;51.354;7.458;2023-07-20T21:42:46;3.60;;;3.05;;
11703;SDS011;5908;51.354;7.458;2023-07-20T21:45:13;5.60;;;4.15;;
11703;SDS011;5908;51.354;7.458;2023-07-20T21:47:40;4.15;;;3.20;;
11703;SDS011;5908;51.354;7.458;2023-07-20T21:50:10;5.53;;;3.60;;
11703;SDS011;5908;51.354;7.458;2023-07-20T21:52:37;4.33;;;3.37;;
11703;SDS011;5908;51.354;7.458;2023-07-20T21:55:04;3.65;;;3.20;;
11703;SDS011;5908;51.354;7.458;2023-07-20T21:57:32;4.78;;;4.03;;
11703;SDS011;5908;51.354;7.458;2023-07-20T21:59:59;5.60;;;3.70;;
11703;SDS011;5908;51.354;7.458;2023-07-20T22:02:26;4.50;;;3.30;;
11703;SDS011;5908;51.354;7.458;2023-07-20T22:04:52;3.10;;;2.90;;
11703;SDS011;5908;51.354;7.458;2023-07-20T22:07:21;3.60;;;3.17;;
11703;SDS011;5908;51.354;7.458;2023-07-20T22:09:47;4.03;;;2.65;;
11703;SDS011;5908;51.354;7.458;2023-07-20T22:12:14;3.35;;;2.85;;
11703;SDS011;5908;51.354;7.458;2023-07-20T22:14:42;4.18;;;3.53;;
11703;SDS011;5908;51.354;7.458;2023-07-20T22:17:09;4.00;;;3.60;;
11703;SDS011;5908;51.354;7.458;2023-07-20T22:19:39;4.95;;;4.30;;
11703;SDS011;5908;51.354;7.458;2023-07-20T22:22:06;4.30;;;3.90;;
11703;SDS011;5908;51.354;7.458;2023-07-20T22:24:34;4.15;;;3.60;;
11703;SDS011;5908;51.354;7.458;2023-07-20T22:27:01;5.63;;;4.95;;
11703;SDS011;5908;51.354;7.458;2023-07-20T22:29:28;4.93;;;4.43;;
11703;SDS011;5908;51.354;7.458;2023-07-20T22:31:58;6.47;;;5.68;;
11703;SDS011;5908;51.354;7.458;2023-07-20T22:34:26;6.28;;;5.00;;
11703;SDS011;5908;51.354;7.458;2023-07-20T22:36:55;4.88;;;4.38;;
11703;SDS011;5908;51.354;7.458;2023-07-20T22:39:22;5.60;;;5.10;;
11703;SDS011;5908;51.354;7.458;2023-07-20T22:41:50;12.35;;;11.05;;
11703;SDS011;5908;51.354;7.458;2023-07-20T22:44:17;6.10;;;5.50;;
11703;SDS011;5908;51.354;7.458;2023-07-20T22:46:45;6.97;;;5.57;;
11703;SDS011;5908;51.354;7.458;2023-07-20T22:49:11;4.82;;;4.20;;
11703;SDS011;5908;51.354;7.458;2023-07-20T22:51:39;4.85;;;4.45;;
11703;SDS011;5908;51.354;7.458;2023-07-20T22:54:06;4.57;;;3.90;;
11703;SDS011;5908;51.354;7.458;2023-07-20T22:56:32;8.23;;;4.15;;
11703;SDS011;5908;51.354;7.458;2023-07-20T22:59:01;4.07;;;3.67;;
11703;SDS011;5908;51.354;7.458;2023-07-20T23:01:27;4.75;;;4.28;;
11703;SDS011;5908;51.354;7.458;2023-07-20T23:03:55;3.75;;;3.45;;
11703;SDS011;5908;51.354;7.458;2023-07-20T23:06:22;4.40;;;4.00;;
11703;SDS011;5908;51.354;7.458;2023-07-20T23:08:49;4.60;;;4.20;;
11703;SDS011;5908;51.354;7.458;2023-07-20T23:11:16;5.93;;;5.40;;
11703;SDS011;5908;51.354;7.458;2023-07-20T23:13:43;5.95;;;5.45;;
11703;SDS011;5908;51.354;7.458;2023-07-20T23:16:11;6.22;;;5.63;;
11703;SDS011;5908;51.354;7.458;2023-07-20T23:18:38;5.88;;;5.28;;
11703;SDS011;5908;51.354;7.458;2023-07-20T23:21:05;5.82;;;5.32;;
11703;SDS011;5908;51.354;7.458;2023-07-20T23:23:33;6.68;;;5.10;;
11703;SDS011;5908;51.354;7.458;2023-07-20T23:26:00;5.80;;;5.30;;
11703;SDS011;5908;51.354;7.458;2023-07-20T23:28:27;5.38;;;4.88;;
11703;SDS011;5908;51.354;7.458;2023-07-20T23:30:54;5.10;;;4.60;;
11703;SDS011;5908;51.354;7.458;2023-07-20T23:33:22;4.50;;;4.10;;
11703;SDS011;5908;51.354;7.458;2023-07-20T23:35:49;4.95;;;4.07;;
11703;SDS011;5908;51.354;7.458;2023-07-20T23:38:16;5.40;;;4.90;;
11703;SDS011;5908;51.354;7.458;2023-07-20T23:40:43;5.00;;;4.60;;
11703;SDS011;5908;51.354;7.458;2023-07-20T23:43:10;5.18;;;4.65;;
11703;SDS011;5908;51.354;7.458;2023-07-20T23:45:37;7.65;;;5.15;;
11703;SDS011;5908;51.354;7.458;2023-07-20T23:48:05;5.30;;;4.82;;
11703;SDS011;5908;51.354;7.458;2023-07-20T23:50:35;4.90;;;4.38;;
11703;SDS011;5908;51.354;7.458;2023-07-20T23:53:02;7.35;;;5.43;;
11703;SDS011;5908;51.354;7.458;2023-07-20T23:55:29;6.50;;;4.82;;
11703;SDS011;5908;51.354;7.458;2023-07-20T23:57:56;5.97;;;5.37;;
